sensor_id;sensor_type;location;lat;lon;timestamp;P1;durP1;ratioP1;P2;durP2;ratioP2
7213;SDS011;3648;50.614;13.830;2023-02-03T00:00:25;11.13;;;5.43;;
7213;SDS011;3648;50.614;13.830;2023-02-03T00:02:53;7.00;;;4.77;;
7213;SDS011;3648;50.614;13.830;2023-02-03T00:05:19;10.10;;;4.47;;
7213;SDS011;3648;50.614;13.830;2023-02-03T00:07:47;11.83;;;4.67;;
7213;SDS011;3648;50.614;13.830;2023-02-03T00:10:14;10.73;;;5.43;;
7213;SDS011;3648;50.614;13.830;2023-02-03T00:12:45;9.77;;;5.43;;
7213;SDS011;3648;50.614;13.830;2023-02-03T00:15:12;12.20;;;5.23;;
7213;SDS011;3648;50.614;13.830;2023-02-03T00:17:40;10.07;;;5.40;;
7213;SDS011;3648;50.614;13.830;2023-02-03T00:20:08;11.90;;;5.23;;
7213;SDS011;3648;50.614;13.830;2023-02-03T00:22:36;12.17;;;5.73;;
7213;SDS011;3648;50.614;13.830;2023-02-03T00:25:04;14.10;;;6.67;;
7213;SDS011;3648;50.614;13.830;2023-02-03T00:27:31;18.10;;;7.57;;
7213;SDS011;3648;50.614;13.830;2023-02-03T00:29:58;17.17;;;9.00;;
7213;SDS011;3648;50.614;13.830;2023-02-03T00:32:25;11.13;;;6.53;;
7213;SDS011;3648;50.614;13.830;2023-02-03T00:34:53;14.70;;;6.90;;
7213;SDS011;3648;50.614;13.830;2023-02-03T00:37:20;10.17;;;5.23;;
7213;SDS011;3648;50.614;13.830;2023-02-03T00:39:48;7.63;;;4.50;;
7213;SDS011;3648;50.614;13.830;2023-02-03T00:42:15;7.30;;;3.83;;
7213;SDS011;3648;50.614;13.830;2023-02-03T00:44:42;7.93;;;4.70;;
7213;SDS011;3648;50.614;13.830;2023-02-03T00:47:09;11.43;;;4.37;;
7213;SDS011;3648;50.614;13.830;2023-02-03T00:49:36;9.93;;;4.70;;
7213;SDS011;3648;50.614;13.830;2023-02-03T00:52:04;7.47;;;3.83;;
7213;SDS011;3648;50.614;13.830;2023-02-03T00:54:31;8.67;;;3.53;;
7213;SDS011;3648;50.614;13.830;2023-02-03T00:56:58;6.57;;;3.00;;
7213;SDS011;3648;50.614;13.830;2023-02-03T00:59:25;7.03;;;3.50;;
7213;SDS011;3648;50.614;13.830;2023-02-03T01:01:52;5.20;;;3.53;;
7213;SDS011;3648;50.614;13.830;2023-02-03T01:04:19;7.33;;;3.53;;
7213;SDS011;3648;50.614;13.830;2023-02-03T01:06:46;4.10;;;2.67;;
7213;SDS011;3648;50.614;13.830;2023-02-03T01:09:14;4.80;;;3.03;;
7213;SDS011;3648;50.614;13.830;2023-02-03T01:11:41;10.57;;;3.97;;
7213;SDS011;3648;50.614;13.830;2023-02-03T01:14:08;9.53;;;3.23;;
7213;SDS011;3648;50.614;13.830;2023-02-03T01:16:35;9.57;;;3.90;;
7213;SDS011;3648;50.614;13.830;2023-02-03T01:19:02;8.20;;;4.33;;
7213;SDS011;3648;50.614;13.830;2023-02-03T01:21:29;6.50;;;3.97;;
7213;SDS011;3648;50.614;13.830;2023-02-03T01:23:57;8.53;;;3.47;;
7213;SDS011;3648;50.614;13.830;2023-02-03T01:26:26;6.77;;;3.67;;
7213;SDS011;3648;50.614;13.830;2023-02-03T01:28:53;7.70;;;3.40;;
7213;SDS011;3648;50.614;13.830;2023-02-03T01:31:22;5.97;;;3.67;;
7213;SDS011;3648;50.614;13.830;2023-02-03T01:33:51;4.67;;;3.10;;
7213;SDS011;3648;50.614;13.830;2023-02-03T01:36:20;7.03;;;2.90;;
7213;SDS011;3648;50.614;13.830;2023-02-03T01:38:48;6.63;;;3.03;;
7213;SDS011;3648;50.614;13.830;2023-02-03T01:41:16;4.60;;;3.50;;
7213;SDS011;3648;50.614;13.830;2023-02-03T01:43:47;5.23;;;2.83;;
7213;SDS011;3648;50.614;13.830;2023-02-03T01:46:17;4.47;;;3.20;;
7213;SDS011;3648;50.614;13.830;2023-02-03T01:48:51;4.87;;;2.80;;
7213;SDS011;3648;50.614;13.830;2023-02-03T01:51:21;5.80;;;3.53;;
7213;SDS011;3648;50.614;13.830;2023-02-03T01:53:48;6.20;;;3.33;;
7213;SDS011;3648;50.614;13.830;2023-02-03T01:56:18;5.73;;;3.57;;
7213;SDS011;3648;50.614;13.830;2023-02-03T01:58:46;6.77;;;3.70;;
7213;SDS011;3648;50.614;13.830;2023-02-03T02:01:14;6.17;;;3.83;;
7213;SDS011;3648;50.614;13.830;2023-02-03T02:03:50;5.10;;;3.63;;
7213;SDS011;3648;50.614;13.830;2023-02-03T02:06:20;8.07;;;5.70;;
7213;SDS011;3648;50.614;13.830;2023-02-03T02:08:49;8.53;;;6.90;;
7213;SDS011;3648;50.614;13.830;2023-02-03T02:11:18;7.43;;;5.60;;
7213;SDS011;3648;50.614;13.830;2023-02-03T02:13:48;8.17;;;4.50;;
7213;SDS011;3648;50.614;13.830;2023-02-03T02:16:18;6.27;;;3.67;;
7213;SDS011;3648;50.614;13.830;2023-02-03T02:18:56;8.63;;;4.57;;
7213;SDS011;3648;50.614;13.830;2023-02-03T02:24:31;5.40;;;3.97;;
7213;SDS011;3648;50.614;13.830;2023-02-03T02:27:12;9.10;;;4.37;;
7213;SDS011;3648;50.614;13.830;2023-02-03T02:30:09;6.33;;;3.77;;
7213;SDS011;3648;50.614;13.830;2023-02-03T02:33:16;7.13;;;4.27;;
7213;SDS011;3648;50.614;13.830;2023-02-03T02:35:56;12.40;;;7.07;;
7213;SDS011;3648;50.614;13.830;2023-02-03T02:38:33;12.27;;;6.60;;
7213;SDS011;3648;50.614;13.830;2023-02-03T02:41:13;10.50;;;5.27;;
7213;SDS011;3648;50.614;13.830;2023-02-03T02:43:46;9.40;;;5.80;;
7213;SDS011;3648;50.614;13.830;2023-02-03T02:46:16;7.93;;;5.57;;
7213;SDS011;3648;50.614;13.830;2023-02-03T02:48:51;7.97;;;5.03;;
7213;SDS011;3648;50.614;13.830;2023-02-03T02:51:21;10.87;;;6.70;;
7213;SDS011;3648;50.614;13.830;2023-02-03T02:53:50;6.10;;;5.20;;
7213;SDS011;3648;50.614;13.830;2023-02-03T02:56:20;6.47;;;4.37;;
7213;SDS011;3648;50.614;13.830;2023-02-03T02:58:49;6.30;;;4.53;;
7213;SDS011;3648;50.614;13.830;2023-02-03T03:01:17;5.53;;;4.40;;
7213;SDS011;3648;50.614;13.830;2023-02-03T03:03:44;6.23;;;4.50;;
7213;SDS011;3648;50.614;13.830;2023-02-03T03:06:13;7.43;;;5.00;;
7213;SDS011;3648;50.614;13.830;2023-02-03T03:08:45;7.33;;;4.90;;
7213;SDS011;3648;50.614;13.830;2023-02-03T03:11:17;6.77;;;5.47;;
7213;SDS011;3648;50.614;13.830;2023-02-03T03:13:47;5.73;;;4.30;;
7213;SDS011;3648;50.614;13.830;2023-02-03T03:16:17;6.10;;;4.80;;
7213;SDS011;3648;50.614;13.830;2023-02-03T03:18:48;6.37;;;4.57;;
7213;SDS011;3648;50.614;13.830;2023-02-03T03:21:21;8.03;;;4.83;;
7213;SDS011;3648;50.614;13.830;2023-02-03T03:23:50;5.47;;;4.43;;
7213;SDS011;3648;50.614;13.830;2023-02-03T03:26:23;8.43;;;4.73;;
7213;SDS011;3648;50.614;13.830;2023-02-03T03:28:56;10.30;;;5.90;;
7213;SDS011;3648;50.614;13.830;2023-02-03T03:31:31;7.60;;;5.53;;
7213;SDS011;3648;50.614;13.830;2023-02-03T03:33:58;6.77;;;4.90;;
7213;SDS011;3648;50.614;13.830;2023-02-03T03:36:27;6.27;;;5.00;;
7213;SDS011;3648;50.614;13.830;2023-02-03T03:38:59;6.13;;;4.63;;
7213;SDS011;3648;50.614;13.830;2023-02-03T03:41:34;10.10;;;4.63;;
7213;SDS011;3648;50.614;13.830;2023-02-03T03:44:08;6.33;;;4.57;;
7213;SDS011;3648;50.614;13.830;2023-02-03T03:46:39;4.43;;;3.80;;
7213;SDS011;3648;50.614;13.830;2023-02-03T03:49:10;6.23;;;4.00;;
7213;SDS011;3648;50.614;13.830;2023-02-03T03:51:41;5.20;;;3.70;;
7213;SDS011;3648;50.614;13.830;2023-02-03T03:54:13;4.10;;;3.70;;
7213;SDS011;3648;50.614;13.830;2023-02-03T03:56:47;3.73;;;3.23;;
7213;SDS011;3648;50.614;13.830;2023-02-03T03:59:19;5.33;;;3.77;;
7213;SDS011;3648;50.614;13.830;2023-02-03T04:01:47;13.13;;;8.13;;
7213;SDS011;3648;50.614;13.830;2023-02-03T04:04:16;11.60;;;8.07;;
7213;SDS011;3648;50.614;13.830;2023-02-03T04:06:45;9.20;;;5.93;;
7213;SDS011;3648;50.614;13.830;2023-02-03T04:09:12;7.50;;;5.60;;
7213;SDS011;3648;50.614;13.830;2023-02-03T04:11:39;5.37;;;4.17;;
7213;SDS011;3648;50.614;13.830;2023-02-03T04:14:23;5.83;;;4.07;;
7213;SDS011;3648;50.614;13.830;2023-02-03T04:16:50;4.57;;;3.90;;
7213;SDS011;3648;50.614;13.830;2023-02-03T04:19:17;4.33;;;3.83;;
7213;SDS011;3648;50.614;13.830;2023-02-03T04:21:45;6.40;;;4.10;;
7213;SDS011;3648;50.614;13.830;2023-02-03T04:24:12;4.80;;;4.20;;
7213;SDS011;3648;50.614;13.830;2023-02-03T04:26:39;4.00;;;3.50;;
7213;SDS011;3648;50.614;13.830;2023-02-03T04:29:06;4.53;;;3.47;;
7213;SDS011;3648;50.614;13.830;2023-02-03T04:31:33;5.77;;;4.20;;
7213;SDS011;3648;50.614;13.830;2023-02-03T04:34:00;5.77;;;4.83;;
7213;SDS011;3648;50.614;13.830;2023-02-03T04:36:27;5.00;;;3.37;;
7213;SDS011;3648;50.614;13.830;2023-02-03T04:38:55;4.77;;;3.80;;
7213;SDS011;3648;50.614;13.830;2023-02-03T04:41:22;5.03;;;3.40;;
7213;SDS011;3648;50.614;13.830;2023-02-03T04:43:49;4.03;;;3.40;;
7213;SDS011;3648;50.614;13.830;2023-02-03T04:46:16;4.23;;;3.70;;
7213;SDS011;3648;50.614;13.830;2023-02-03T04:48:44;3.80;;;3.00;;
7213;SDS011;3648;50.614;13.830;2023-02-03T04:51:10;3.27;;;2.97;;
7213;SDS011;3648;50.614;13.830;2023-02-03T04:53:37;3.67;;;2.70;;
7213;SDS011;3648;50.614;13.830;2023-02-03T04:56:06;3.90;;;3.10;;
7213;SDS011;3648;50.614;13.830;2023-02-03T04:58:33;4.03;;;3.20;;
7213;SDS011;3648;50.614;13.830;2023-02-03T05:01:05;4.33;;;3.40;;
7213;SDS011;3648;50.614;13.830;2023-02-03T05:03:33;3.87;;;3.33;;
7213;SDS011;3648;50.614;13.830;2023-02-03T05:06:00;7.60;;;6.07;;
7213;SDS011;3648;50.614;13.830;2023-02-03T05:08:28;8.10;;;6.43;;
7213;SDS011;3648;50.614;13.830;2023-02-03T05:10:55;8.77;;;6.53;;
7213;SDS011;3648;50.614;13.830;2023-02-03T05:13:23;7.50;;;6.57;;
7213;SDS011;3648;50.614;13.830;2023-02-03T05:15:50;6.90;;;6.20;;
7213;SDS011;3648;50.614;13.830;2023-02-03T05:18:18;8.70;;;6.53;;
7213;SDS011;3648;50.614;13.830;2023-02-03T05:20:45;8.50;;;7.13;;
7213;SDS011;3648;50.614;13.830;2023-02-03T05:23:11;8.37;;;7.23;;
7213;SDS011;3648;50.614;13.830;2023-02-03T05:25:38;11.93;;;8.77;;
7213;SDS011;3648;50.614;13.830;2023-02-03T05:28:05;11.17;;;8.93;;
7213;SDS011;3648;50.614;13.830;2023-02-03T05:30:34;9.47;;;8.03;;
7213;SDS011;3648;50.614;13.830;2023-02-03T05:33:00;10.60;;;8.50;;
7213;SDS011;3648;50.614;13.830;2023-02-03T05:35:27;9.10;;;7.10;;
7213;SDS011;3648;50.614;13.830;2023-02-03T05:37:54;10.00;;;7.77;;
7213;SDS011;3648;50.614;13.830;2023-02-03T05:40:21;10.70;;;8.03;;
7213;SDS011;3648;50.614;13.830;2023-02-03T05:43:05;7.70;;;5.13;;
7213;SDS011;3648;50.614;13.830;2023-02-03T05:45:34;11.97;;;8.33;;
7213;SDS011;3648;50.614;13.830;2023-02-03T05:48:01;9.63;;;6.90;;
7213;SDS011;3648;50.614;13.830;2023-02-03T05:50:28;7.83;;;5.50;;
7213;SDS011;3648;50.614;13.830;2023-02-03T05:52:57;10.47;;;7.00;;
7213;SDS011;3648;50.614;13.830;2023-02-03T05:55:24;10.67;;;6.93;;
7213;SDS011;3648;50.614;13.830;2023-02-03T05:57:51;7.97;;;5.43;;
7213;SDS011;3648;50.614;13.830;2023-02-03T06:00:18;9.67;;;6.20;;
7213;SDS011;3648;50.614;13.830;2023-02-03T06:02:50;8.63;;;7.20;;
7213;SDS011;3648;50.614;13.830;2023-02-03T06:05:18;6.93;;;5.80;;
7213;SDS011;3648;50.614;13.830;2023-02-03T06:07:45;5.43;;;4.37;;
7213;SDS011;3648;50.614;13.830;2023-02-03T06:10:12;5.97;;;5.33;;
7213;SDS011;3648;50.614;13.830;2023-02-03T06:12:40;6.13;;;5.47;;
7213;SDS011;3648;50.614;13.830;2023-02-03T06:15:07;6.20;;;5.60;;
7213;SDS011;3648;50.614;13.830;2023-02-03T06:17:35;5.70;;;5.10;;
7213;SDS011;3648;50.614;13.830;2023-02-03T06:20:04;5.00;;;4.50;;
7213;SDS011;3648;50.614;13.830;2023-02-03T06:22:33;5.17;;;4.13;;
7213;SDS011;3648;50.614;13.830;2023-02-03T06:25:00;11.23;;;8.07;;
7213;SDS011;3648;50.614;13.830;2023-02-03T06:27:27;8.27;;;6.37;;
7213;SDS011;3648;50.614;13.830;2023-02-03T06:29:54;6.50;;;5.43;;
7213;SDS011;3648;50.614;13.830;2023-02-03T06:32:21;6.87;;;5.83;;
7213;SDS011;3648;50.614;13.830;2023-02-03T06:34:48;26.60;;;18.70;;
7213;SDS011;3648;50.614;13.830;2023-02-03T06:37:16;35.57;;;23.50;;
7213;SDS011;3648;50.614;13.830;2023-02-03T06:39:43;36.73;;;24.57;;
7213;SDS011;3648;50.614;13.830;2023-02-03T06:42:10;30.00;;;20.17;;
7213;SDS011;3648;50.614;13.830;2023-02-03T06:44:37;20.10;;;13.43;;
7213;SDS011;3648;50.614;13.830;2023-02-03T06:47:04;21.97;;;13.20;;
7213;SDS011;3648;50.614;13.830;2023-02-03T06:49:31;19.70;;;12.87;;
7213;SDS011;3648;50.614;13.830;2023-02-03T06:51:58;17.47;;;11.93;;
7213;SDS011;3648;50.614;13.830;2023-02-03T06:54:26;11.93;;;7.83;;
7213;SDS011;3648;50.614;13.830;2023-02-03T06:56:53;15.57;;;10.73;;
7213;SDS011;3648;50.614;13.830;2023-02-03T06:59:20;10.73;;;8.77;;
7213;SDS011;3648;50.614;13.830;2023-02-03T07:01:47;11.87;;;8.87;;
7213;SDS011;3648;50.614;13.830;2023-02-03T07:04:14;10.80;;;7.47;;
7213;SDS011;3648;50.614;13.830;2023-02-03T07:06:41;6.57;;;5.20;;
7213;SDS011;3648;50.614;13.830;2023-02-03T07:09:08;7.50;;;4.83;;
7213;SDS011;3648;50.614;13.830;2023-02-03T07:11:36;6.07;;;4.33;;
7213;SDS011;3648;50.614;13.830;2023-02-03T07:14:03;5.63;;;3.80;;
7213;SDS011;3648;50.614;13.830;2023-02-03T07:16:31;7.43;;;6.07;;
7213;SDS011;3648;50.614;13.830;2023-02-03T07:18:58;5.30;;;4.23;;
7213;SDS011;3648;50.614;13.830;2023-02-03T07:21:25;9.07;;;6.40;;
7213;SDS011;3648;50.614;13.830;2023-02-03T07:23:52;7.40;;;5.87;;
7213;SDS011;3648;50.614;13.830;2023-02-03T07:26:19;9.87;;;8.17;;
7213;SDS011;3648;50.614;13.830;2023-02-03T07:28:48;7.03;;;6.33;;
7213;SDS011;3648;50.614;13.830;2023-02-03T07:31:16;9.40;;;7.67;;
7213;SDS011;3648;50.614;13.830;2023-02-03T07:33:43;7.93;;;6.37;;
7213;SDS011;3648;50.614;13.830;2023-02-03T07:36:10;4.57;;;3.73;;
7213;SDS011;3648;50.614;13.830;2023-02-03T07:38:37;5.20;;;3.53;;
7213;SDS011;3648;50.614;13.830;2023-02-03T07:41:04;3.43;;;2.90;;
7213;SDS011;3648;50.614;13.830;2023-02-03T07:43:32;3.23;;;2.77;;
7213;SDS011;3648;50.614;13.830;2023-02-03T07:46:00;3.13;;;2.50;;
7213;SDS011;3648;50.614;13.830;2023-02-03T07:48:27;4.07;;;3.07;;
7213;SDS011;3648;50.614;13.830;2023-02-03T07:50:54;6.20;;;3.77;;
7213;SDS011;3648;50.614;13.830;2023-02-03T07:53:22;4.10;;;2.93;;
7213;SDS011;3648;50.614;13.830;2023-02-03T07:55:49;4.37;;;2.60;;
7213;SDS011;3648;50.614;13.830;2023-02-03T07:58:16;3.27;;;2.97;;
7213;SDS011;3648;50.614;13.830;2023-02-03T08:00:44;4.13;;;3.57;;
7213;SDS011;3648;50.614;13.830;2023-02-03T08:03:12;3.67;;;2.97;;
7213;SDS011;3648;50.614;13.830;2023-02-03T08:05:39;3.83;;;2.57;;
7213;SDS011;3648;50.614;13.830;2023-02-03T08:08:06;3.77;;;2.50;;
7213;SDS011;3648;50.614;13.830;2023-02-03T08:10:33;7.77;;;4.77;;
7213;SDS011;3648;50.614;13.830;2023-02-03T08:13:00;4.40;;;3.20;;
7213;SDS011;3648;50.614;13.830;2023-02-03T08:15:27;3.60;;;3.30;;
7213;SDS011;3648;50.614;13.830;2023-02-03T08:17:54;4.93;;;2.77;;
7213;SDS011;3648;50.614;13.830;2023-02-03T08:20:22;4.20;;;3.80;;
7213;SDS011;3648;50.614;13.830;2023-02-03T08:22:50;5.77;;;2.77;;
7213;SDS011;3648;50.614;13.830;2023-02-03T08:25:18;4.23;;;3.30;;
7213;SDS011;3648;50.614;13.830;2023-02-03T08:27:45;6.20;;;3.87;;
7213;SDS011;3648;50.614;13.830;2023-02-03T08:30:12;8.70;;;6.73;;
7213;SDS011;3648;50.614;13.830;2023-02-03T08:32:40;7.40;;;6.07;;
7213;SDS011;3648;50.614;13.830;2023-02-03T08:35:07;9.27;;;6.23;;
7213;SDS011;3648;50.614;13.830;2023-02-03T08:37:35;16.80;;;9.57;;
7213;SDS011;3648;50.614;13.830;2023-02-03T08:40:03;31.53;;;17.07;;
7213;SDS011;3648;50.614;13.830;2023-02-03T08:42:31;13.00;;;8.33;;
7213;SDS011;3648;50.614;13.830;2023-02-03T08:44:58;13.77;;;8.07;;
7213;SDS011;3648;50.614;13.830;2023-02-03T08:47:25;6.20;;;4.60;;
7213;SDS011;3648;50.614;13.830;2023-02-03T08:49:52;7.20;;;4.17;;
7213;SDS011;3648;50.614;13.830;2023-02-03T08:52:19;6.17;;;4.00;;
7213;SDS011;3648;50.614;13.830;2023-02-03T08:54:48;5.13;;;3.63;;
7213;SDS011;3648;50.614;13.830;2023-02-03T08:57:15;4.50;;;3.77;;
7213;SDS011;3648;50.614;13.830;2023-02-03T08:59:42;5.97;;;3.37;;
7213;SDS011;3648;50.614;13.830;2023-02-03T09:02:10;11.70;;;6.67;;
7213;SDS011;3648;50.614;13.830;2023-02-03T09:04:40;19.30;;;11.00;;
7213;SDS011;3648;50.614;13.830;2023-02-03T09:07:07;9.80;;;6.07;;
7213;SDS011;3648;50.614;13.830;2023-02-03T09:09:35;11.03;;;7.10;;
7213;SDS011;3648;50.614;13.830;2023-02-03T09:12:04;6.57;;;4.73;;
7213;SDS011;3648;50.614;13.830;2023-02-03T09:14:31;6.43;;;4.37;;
7213;SDS011;3648;50.614;13.830;2023-02-03T09:16:58;4.47;;;3.90;;
7213;SDS011;3648;50.614;13.830;2023-02-03T09:19:27;7.03;;;4.97;;
7213;SDS011;3648;50.614;13.830;2023-02-03T09:21:54;3.90;;;3.37;;
7213;SDS011;3648;50.614;13.830;2023-02-03T09:24:22;3.80;;;3.40;;
7213;SDS011;3648;50.614;13.830;2023-02-03T09:26:49;4.43;;;3.07;;
7213;SDS011;3648;50.614;13.830;2023-02-03T09:29:18;3.70;;;2.93;;
7213;SDS011;3648;50.614;13.830;2023-02-03T09:31:45;3.10;;;2.20;;
7213;SDS011;3648;50.614;13.830;2023-02-03T09:34:14;3.07;;;2.20;;
7213;SDS011;3648;50.614;13.830;2023-02-03T09:36:41;3.77;;;3.10;;
7213;SDS011;3648;50.614;13.830;2023-02-03T09:39:08;5.47;;;4.73;;
7213;SDS011;3648;50.614;13.830;2023-02-03T09:41:40;4.23;;;3.03;;
7213;SDS011;3648;50.614;13.830;2023-02-03T09:44:30;2.77;;;2.40;;
7213;SDS011;3648;50.614;13.830;2023-02-03T09:47:03;3.00;;;2.60;;
7213;SDS011;3648;50.614;13.830;2023-02-03T09:49:38;6.57;;;4.73;;
7213;SDS011;3648;50.614;13.830;2023-02-03T09:52:10;5.93;;;4.33;;
7213;SDS011;3648;50.614;13.830;2023-02-03T09:54:40;13.80;;;7.93;;
7213;SDS011;3648;50.614;13.830;2023-02-03T09:57:12;14.80;;;9.20;;
7213;SDS011;3648;50.614;13.830;2023-02-03T09:59:44;9.93;;;5.70;;
7213;SDS011;3648;50.614;13.830;2023-02-03T10:02:16;8.10;;;4.30;;
7213;SDS011;3648;50.614;13.830;2023-02-03T10:04:54;3.40;;;2.40;;
7213;SDS011;3648;50.614;13.830;2023-02-03T10:07:27;4.10;;;3.00;;
7213;SDS011;3648;50.614;13.830;2023-02-03T10:10:01;2.83;;;2.53;;
7213;SDS011;3648;50.614;13.830;2023-02-03T10:12:40;2.10;;;1.87;;
7213;SDS011;3648;50.614;13.830;2023-02-03T10:15:26;2.73;;;2.13;;
7213;SDS011;3648;50.614;13.830;2023-02-03T10:18:04;3.43;;;1.67;;
7213;SDS011;3648;50.614;13.830;2023-02-03T10:20:36;2.83;;;1.80;;
7213;SDS011;3648;50.614;13.830;2023-02-03T10:23:10;2.80;;;1.93;;
7213;SDS011;3648;50.614;13.830;2023-02-03T10:25:40;3.90;;;2.10;;
7213;SDS011;3648;50.614;13.830;2023-02-03T10:28:10;3.00;;;1.60;;
7213;SDS011;3648;50.614;13.830;2023-02-03T10:30:44;1.80;;;1.70;;
7213;SDS011;3648;50.614;13.830;2023-02-03T10:33:14;2.80;;;2.13;;
7213;SDS011;3648;50.614;13.830;2023-02-03T10:35:45;1.77;;;1.37;;
7213;SDS011;3648;50.614;13.830;2023-02-03T10:38:18;2.30;;;1.57;;
7213;SDS011;3648;50.614;13.830;2023-02-03T10:40:54;2.20;;;1.50;;
7213;SDS011;3648;50.614;13.830;2023-02-03T10:43:21;2.77;;;1.60;;
7213;SDS011;3648;50.614;13.830;2023-02-03T10:46:07;1.67;;;1.40;;
7213;SDS011;3648;50.614;13.830;2023-02-03T10:48:34;2.37;;;1.33;;
7213;SDS011;3648;50.614;13.830;2023-02-03T10:51:01;1.20;;;1.10;;
7213;SDS011;3648;50.614;13.830;2023-02-03T10:53:31;1.50;;;1.40;;
7213;SDS011;3648;50.614;13.830;2023-02-03T10:56:00;1.50;;;1.33;;
7213;SDS011;3648;50.614;13.830;2023-02-03T10:58:30;0.90;;;0.80;;
7213;SDS011;3648;50.614;13.830;2023-02-03T11:01:03;0.80;;;0.80;;
7213;SDS011;3648;50.614;13.830;2023-02-03T11:03:34;1.37;;;0.90;;
7213;SDS011;3648;50.614;13.830;2023-02-03T11:06:02;1.23;;;1.00;;
7213;SDS011;3648;50.614;13.830;2023-02-03T11:08:32;2.00;;;0.90;;
7213;SDS011;3648;50.614;13.830;2023-02-03T11:11:03;1.00;;;0.70;;
7213;SDS011;3648;50.614;13.830;2023-02-03T11:13:32;1.50;;;0.93;;
7213;SDS011;3648;50.614;13.830;2023-02-03T11:15:59;1.00;;;0.73;;
7213;SDS011;3648;50.614;13.830;2023-02-03T11:18:37;1.00;;;0.70;;
7213;SDS011;3648;50.614;13.830;2023-02-03T11:21:11;1.20;;;0.90;;
7213;SDS011;3648;50.614;13.830;2023-02-03T11:23:48;1.00;;;0.90;;
7213;SDS011;3648;50.614;13.830;2023-02-03T11:26:18;0.70;;;0.70;;
7213;SDS011;3648;50.614;13.830;2023-02-03T11:28:49;1.60;;;0.67;;
7213;SDS011;3648;50.614;13.830;2023-02-03T11:31:19;1.00;;;0.70;;
7213;SDS011;3648;50.614;13.830;2023-02-03T11:33:51;1.60;;;0.63;;
7213;SDS011;3648;50.614;13.830;2023-02-03T11:36:24;1.07;;;0.67;;
7213;SDS011;3648;50.614;13.830;2023-02-03T11:39:07;0.73;;;0.63;;
7213;SDS011;3648;50.614;13.830;2023-02-03T11:41:43;1.57;;;0.70;;
7213;SDS011;3648;50.614;13.830;2023-02-03T11:44:11;0.60;;;0.60;;
7213;SDS011;3648;50.614;13.830;2023-02-03T11:46:41;0.60;;;0.60;;
7213;SDS011;3648;50.614;13.830;2023-02-03T11:49:13;1.07;;;0.70;;
7213;SDS011;3648;50.614;13.830;2023-02-03T11:52:00;0.97;;;0.60;;
7213;SDS011;3648;50.614;13.830;2023-02-03T11:54:38;0.50;;;0.50;;
7213;SDS011;3648;50.614;13.830;2023-02-03T11:57:23;0.60;;;0.60;;
7213;SDS011;3648;50.614;13.830;2023-02-03T12:00:00;0.93;;;0.70;;
7213;SDS011;3648;50.614;13.830;2023-02-03T12:05:44;0.60;;;0.60;;
7213;SDS011;3648;50.614;13.830;2023-02-03T12:08:33;0.53;;;0.53;;
7213;SDS011;3648;50.614;13.830;2023-02-03T12:11:11;0.70;;;0.70;;
7213;SDS011;3648;50.614;13.830;2023-02-03T12:13:58;0.67;;;0.57;;
7213;SDS011;3648;50.614;13.830;2023-02-03T12:16:51;0.97;;;0.63;;
7213;SDS011;3648;50.614;13.830;2023-02-03T12:19:43;0.50;;;0.50;;
7213;SDS011;3648;50.614;13.830;2023-02-03T12:22:24;0.50;;;0.50;;
7213;SDS011;3648;50.614;13.830;2023-02-03T12:25:01;0.50;;;0.50;;
7213;SDS011;3648;50.614;13.830;2023-02-03T12:27:40;1.33;;;0.53;;
7213;SDS011;3648;50.614;13.830;2023-02-03T12:30:16;1.33;;;0.80;;
7213;SDS011;3648;50.614;13.830;2023-02-03T12:32:48;0.63;;;0.53;;
7213;SDS011;3648;50.614;13.830;2023-02-03T12:35:19;2.03;;;0.93;;
7213;SDS011;3648;50.614;13.830;2023-02-03T12:37:53;0.50;;;0.50;;
7213;SDS011;3648;50.614;13.830;2023-02-03T12:40:27;0.50;;;0.50;;
7213;SDS011;3648;50.614;13.830;2023-02-03T12:43:02;0.80;;;0.80;;
7213;SDS011;3648;50.614;13.830;2023-02-03T12:45:45;0.87;;;0.60;;
7213;SDS011;3648;50.614;13.830;2023-02-03T12:48:18;1.03;;;0.70;;
7213;SDS011;3648;50.614;13.830;2023-02-03T12:50:48;0.53;;;0.53;;
7213;SDS011;3648;50.614;13.830;2023-02-03T12:53:21;1.07;;;0.90;;
7213;SDS011;3648;50.614;13.830;2023-02-03T12:55:55;1.07;;;0.80;;
7213;SDS011;3648;50.614;13.830;2023-02-03T12:58:27;0.73;;;0.70;;
7213;SDS011;3648;50.614;13.830;2023-02-03T13:00:57;1.23;;;0.70;;
7213;SDS011;3648;50.614;13.830;2023-02-03T13:03:30;1.90;;;0.87;;
7213;SDS011;3648;50.614;13.830;2023-02-03T13:06:03;0.90;;;0.63;;
7213;SDS011;3648;50.614;13.830;2023-02-03T13:08:38;0.83;;;0.63;;
7213;SDS011;3648;50.614;13.830;2023-02-03T13:11:12;0.70;;;0.50;;
7213;SDS011;3648;50.614;13.830;2023-02-03T13:13:47;1.13;;;0.70;;
7213;SDS011;3648;50.614;13.830;2023-02-03T13:16:18;0.50;;;0.50;;
7213;SDS011;3648;50.614;13.830;2023-02-03T13:18:54;0.30;;;0.30;;
7213;SDS011;3648;50.614;13.830;2023-02-03T13:21:26;0.60;;;0.60;;
7213;SDS011;3648;50.614;13.830;2023-02-03T13:23:54;1.90;;;0.90;;
7213;SDS011;3648;50.614;13.830;2023-02-03T13:26:37;2.53;;;1.80;;
7213;SDS011;3648;50.614;13.830;2023-02-03T13:35:29;3.80;;;3.10;;
7213;SDS011;3648;50.614;13.830;2023-02-03T13:41:08;3.57;;;2.77;;
7213;SDS011;3648;50.614;13.830;2023-02-03T13:43:43;1.47;;;1.37;;
7213;SDS011;3648;50.614;13.830;2023-02-03T13:46:17;4.00;;;1.47;;
7213;SDS011;3648;50.614;13.830;2023-02-03T13:48:48;2.37;;;2.00;;
7213;SDS011;3648;50.614;13.830;2023-02-03T13:51:19;2.73;;;1.63;;
7213;SDS011;3648;50.614;13.830;2023-02-03T13:53:49;2.43;;;1.87;;
7213;SDS011;3648;50.614;13.830;2023-02-03T13:56:25;5.30;;;3.43;;
7213;SDS011;3648;50.614;13.830;2023-02-03T13:59:01;5.53;;;4.20;;
7213;SDS011;3648;50.614;13.830;2023-02-03T14:01:33;3.63;;;2.67;;
7213;SDS011;3648;50.614;13.830;2023-02-03T14:04:02;3.40;;;2.23;;
7213;SDS011;3648;50.614;13.830;2023-02-03T14:12:35;1.10;;;1.00;;
7213;SDS011;3648;50.614;13.830;2023-02-03T14:23:48;1.90;;;1.43;;
7213;SDS011;3648;50.614;13.830;2023-02-03T14:26:20;3.87;;;1.57;;
7213;SDS011;3648;50.614;13.830;2023-02-03T14:29:04;2.33;;;1.03;;
7213;SDS011;3648;50.614;13.830;2023-02-03T14:31:40;1.27;;;0.67;;
7213;SDS011;3648;50.614;13.830;2023-02-03T14:34:26;1.13;;;0.70;;
7213;SDS011;3648;50.614;13.830;2023-02-03T14:37:07;1.03;;;0.70;;
7213;SDS011;3648;50.614;13.830;2023-02-03T14:42:42;3.47;;;0.83;;
7213;SDS011;3648;50.614;13.830;2023-02-03T14:48:53;4.53;;;1.83;;
7213;SDS011;3648;50.614;13.830;2023-02-03T14:51:38;5.73;;;1.67;;
7213;SDS011;3648;50.614;13.830;2023-02-03T14:54:26;7.37;;;1.87;;
7213;SDS011;3648;50.614;13.830;2023-02-03T14:57:22;7.60;;;1.90;;
7213;SDS011;3648;50.614;13.830;2023-02-03T15:00:00;7.50;;;2.47;;
7213;SDS011;3648;50.614;13.830;2023-02-03T15:02:30;8.13;;;2.50;;
7213;SDS011;3648;50.614;13.830;2023-02-03T15:08:00;10.47;;;3.03;;
7213;SDS011;3648;50.614;13.830;2023-02-03T15:10:28;12.07;;;2.87;;
7213;SDS011;3648;50.614;13.830;2023-02-03T15:15:49;12.73;;;2.97;;
7213;SDS011;3648;50.614;13.830;2023-02-03T15:18:19;11.43;;;3.00;;
7213;SDS011;3648;50.614;13.830;2023-02-03T15:20:50;13.67;;;3.80;;
7213;SDS011;3648;50.614;13.830;2023-02-03T15:23:20;12.63;;;4.00;;
7213;SDS011;3648;50.614;13.830;2023-02-03T15:25:52;8.07;;;2.93;;
7213;SDS011;3648;50.614;13.830;2023-02-03T15:28:21;9.37;;;2.87;;
7213;SDS011;3648;50.614;13.830;2023-02-03T15:30:51;7.80;;;2.90;;
7213;SDS011;3648;50.614;13.830;2023-02-03T15:33:22;6.90;;;2.47;;
7213;SDS011;3648;50.614;13.830;2023-02-03T15:35:50;5.70;;;2.37;;
7213;SDS011;3648;50.614;13.830;2023-02-03T15:38:24;8.50;;;2.40;;
7213;SDS011;3648;50.614;13.830;2023-02-03T15:40:54;9.43;;;2.43;;
7213;SDS011;3648;50.614;13.830;2023-02-03T15:43:24;7.83;;;1.73;;
7213;SDS011;3648;50.614;13.830;2023-02-03T15:45:57;4.03;;;2.37;;
7213;SDS011;3648;50.614;13.830;2023-02-03T15:48:31;5.97;;;2.00;;
7213;SDS011;3648;50.614;13.830;2023-02-03T15:51:03;4.57;;;1.53;;
7213;SDS011;3648;50.614;13.830;2023-02-03T15:53:42;4.77;;;1.90;;
7213;SDS011;3648;50.614;13.830;2023-02-03T15:56:15;5.57;;;1.73;;
7213;SDS011;3648;50.614;13.830;2023-02-03T15:58:47;6.83;;;2.37;;
7213;SDS011;3648;50.614;13.830;2023-02-03T16:01:14;8.30;;;2.00;;